| time (UTC) | temp C | wind direction | speed KPH | gust KPH | rain 1hr cm | rain 24hr cm | rain mn cm | humidity % | barometer mb |
| 20260510144555 | 12 | 150 | 1.6 | 8.0 | 0.00 | 0.00 | 0.00 | 83 | 1016.5 |
| 20260510143053 | 12 | 180 | 1.6 | 9.7 | 0.00 | 0.00 | 0.00 | 83 | 1016.4 |
| 20260510141556 | 11 | 144 | 0.0 | 3.2 | 0.00 | 0.00 | 0.00 | 84 | 1016.1 |
| 20260510140055 | 11 | 175 | 3.2 | 6.4 | 0.00 | 0.00 | 0.00 | 85 | 1016.1 |
| 20260510134550 | 11 | 159 | 1.6 | 9.7 | 0.00 | 0.00 | 0.00 | 86 | 1016.1 |
| 20260510133046 | 11 | 184 | 1.6 | 8.0 | 0.00 | 0.00 | 0.00 | 87 | 1016.1 |
| 20260510131543 | 11 | 160 | 0.0 | 0.0 | 0.00 | 0.00 | 0.00 | 88 | 1016.0 |
| 20260510130042 | 11 | 160 | 0.0 | 4.8 | 0.00 | 0.00 | 0.00 | 87 | 1015.8 |
| 20260510124548 | 11 | 160 | 1.6 | 8.0 | 0.00 | 0.00 | 0.00 | 87 | 1015.7 |
| 20260510123039 | 11 | 232 | 4.8 | 22.5 | 0.00 | 0.00 | 0.00 | 88 | 1015.9 |
| 20260510121538 | 11 | 180 | 3.2 | 11.3 | 0.00 | 0.00 | 0.00 | 88 | 1015.9 |
| 20260510120037 | 11 | 132 | 1.6 | 8.0 | 0.00 | 0.00 | 0.00 | 89 | 1016.0 |
| 20260510114541 | 11 | 188 | 0.0 | 8.0 | 0.00 | 0.00 | 0.00 | 89 | 1015.8 |
| 20260510113037 | 11 | 263 | 1.6 | 4.8 | 0.00 | 0.00 | 0.00 | 88 | 1015.7 |
| 20260510111535 | 11 | 90 | 0.0 | 1.6 | 0.00 | 0.00 | 0.00 | 87 | 1015.9 |
| 20260510110039 | 11 | 90 | 0.0 | 3.2 | 0.00 | 0.00 | 0.00 | 89 | 1016.0 |
| 20260510104536 | 11 | 90 | 0.0 | 0.0 | 0.00 | 0.00 | 0.00 | 88 | 1016.0 |
| 20260510103032 | 11 | 90 | 0.0 | 0.0 | 0.00 | 0.00 | 0.00 | 88 | 1015.9 |
| 20260510101531 | 11 | 90 | 0.0 | 3.2 | 0.00 | 0.00 | 0.00 | 88 | 1015.9 |
| 20260510100030 | 11 | 90 | 0.0 | 3.2 | 0.00 | 0.00 | 0.00 | 88 | 1016.1 |
| 20260510094538 | 11 | 84 | 0.0 | 3.2 | 0.00 | 0.00 | 0.00 | 87 | 1016.2 |
| 20260510093026 | 11 | 63 | 0.0 | 3.2 | 0.00 | 0.00 | 0.00 | 86 | 1016.0 |
| 20260510091526 | 11 | 62 | 0.0 | 3.2 | 0.00 | 0.00 | 0.00 | 85 | 1016.0 |
| 20260510090026 | 11 | 154 | 1.6 | 6.4 | 0.00 | 0.00 | 0.00 | 84 | 1015.9 |
| 20260510084524 | 12 | 184 | 0.0 | 8.0 | 0.00 | 0.00 | 0.00 | 84 | 1015.9 |
| 20260510083023 | 12 | 183 | 1.6 | 8.0 | 0.00 | 0.00 | 0.00 | 84 | 1015.8 |
| 20260510081534 | 12 | 193 | 1.6 | 9.7 | 0.00 | 0.00 | 0.00 | 84 | 1015.8 |
| 20260510080030 | 12 | 157 | 0.0 | 4.8 | 0.00 | 0.00 | 0.00 | 84 | 1015.8 |
| 20260510074519 | 12 | 173 | 0.0 | 6.4 | 0.00 | 0.00 | 0.00 | 84 | 1015.6 |
| 20260510073017 | 11 | 177 | 0.0 | 6.4 | 0.00 | 0.00 | 0.00 | 86 | 1015.6 |
| 20260510071514 | 11 | 159 | 1.6 | 9.7 | 0.00 | 0.00 | 0.00 | 86 | 1015.7 |
| 20260510070013 | 11 | 47 | 0.0 | 0.0 | 0.00 | 0.00 | 0.00 | 85 | 1015.7 |
| 20260510064516 | 11 | 47 | 0.0 | 0.0 | 0.00 | 0.00 | 0.00 | 84 | 1015.7 |
| 20260510063016 | 11 | 47 | 0.0 | 0.0 | 0.00 | 0.00 | 0.00 | 82 | 1015.6 |
| 20260510061521 | 11 | 47 | 0.0 | 0.0 | 0.00 | 0.00 | 0.00 | 82 | 1015.6 |
| 20260510060010 | 11 | 47 | 0.0 | 0.0 | 0.00 | 0.00 | 0.00 | 82 | 1015.6 |
| 20260510054509 | 11 | 47 | 0.0 | 0.0 | 0.00 | 0.00 | 0.00 | 82 | 1015.5 |
| 20260510053009 | 11 | 47 | 0.0 | 0.0 | 0.00 | 0.00 | 0.00 | 81 | 1015.7 |
| 20260510051517 | 12 | 47 | 0.0 | 0.0 | 0.00 | 0.00 | 0.00 | 79 | 1015.8 |
| 20260510050009 | 12 | 47 | 0.0 | 0.0 | 0.00 | 0.00 | 0.00 | 80 | 1015.9 |
| 20260510044509 | 12 | 47 | 0.0 | 0.0 | 0.00 | 0.00 | 0.00 | 80 | 1015.9 |
| 20260510043017 | 12 | 47 | 0.0 | 0.0 | 0.00 | 0.00 | 0.00 | 78 | 1015.7 |
| 20260510041507 | 13 | 47 | 0.0 | 0.0 | 0.00 | 0.00 | 0.00 | 76 | 1015.6 |
| 20260510040006 | 13 | 47 | 0.0 | 0.0 | 0.00 | 0.00 | 0.00 | 73 | 1015.4 |
| 20260510034506 | 14 | 47 | 0.0 | 0.0 | 0.00 | 0.00 | 0.00 | 70 | 1015.5 |
| 20260510033005 | 15 | 47 | 0.0 | 0.0 | 0.00 | 0.00 | 0.00 | 70 | 1015.4 |
| 20260510031505 | 15 | 35 | 0.0 | 0.0 | 0.00 | 0.00 | 0.00 | 68 | 1015.5 |
| 20260510030009 | 16 | 35 | 0.0 | 1.6 | 0.00 | 0.00 | 0.00 | 67 | 1015.6 |
| 20260510024503 | 16 | 35 | 0.0 | 3.2 | 0.00 | 0.00 | 0.00 | 65 | 1015.6 |
| 20260510023005 | 17 | 35 | 0.0 | 3.2 | 0.00 | 0.00 | 0.00 | 65 | 1015.7 |
| 20260510021502 | 18 | 340 | 0.0 | 4.8 | 0.00 | 0.00 | 0.00 | 61 | 1015.7 |
| 20260510020101 | 18 | 348 | 3.2 | 8.0 | 0.00 | 0.00 | 0.00 | 58 | 1015.8 |
| 20260510014615 | 18 | 23 | 1.6 | 4.8 | 0.00 | 0.00 | 0.00 | 61 | 1016.1 |
| 20260510013104 | 18 | 22 | 0.0 | 4.8 | 0.00 | 0.00 | 0.00 | 61 | 1016.5 |
| 20260510011554 | 18 | 24 | 0.0 | 6.4 | 0.00 | 0.00 | 0.00 | 63 | 1016.6 |
| 20260510010053 | 18 | 24 | 1.6 | 6.4 | 0.00 | 0.00 | 0.00 | 59 | 1016.8 |
| 20260510004555 | 18 | 340 | 3.2 | 8.0 | 0.00 | 0.00 | 0.00 | 57 | 1016.9 |
| 20260510003052 | 18 | 336 | 1.6 | 6.4 | 0.00 | 0.00 | 0.00 | 61 | 1017.0 |
| 20260510001548 | 19 | 355 | 1.6 | 8.0 | 0.00 | 0.00 | 0.00 | 56 | 1017.3 |
| 20260510000046 | 19 | 160 | 0.0 | 9.7 | 0.00 | 0.00 | 0.00 | 57 | 1017.8 |
| 20260509234544 | 19 | 234 | 1.6 | 6.4 | 0.00 | 0.00 | 0.00 | 57 | 1017.8 |
| 20260509233046 | 19 | 34 | 3.2 | 8.0 | 0.00 | 0.00 | 0.00 | 54 | 1018.4 |
| 20260509231544 | 20 | 286 | 1.6 | 8.0 | 0.00 | 0.00 | 0.00 | 54 | 1018.5 |
| 20260509230038 | 19 | 344 | 3.2 | 14.5 | 0.00 | 0.00 | 0.00 | 55 | 1018.8 |
| 20260509224536 | 19 | 205 | 1.6 | 8.0 | 0.00 | 0.00 | 0.00 | 55 | 1019.1 |
| 20260509223042 | 20 | 329 | 1.6 | 9.7 | 0.00 | 0.00 | 0.00 | 57 | 1019.3 |
| 20260509221533 | 19 | 36 | 1.6 | 9.7 | 0.00 | 0.00 | 0.00 | 59 | 1019.5 |
| 20260509220031 | 19 | 355 | 1.6 | 8.0 | 0.00 | 0.00 | 0.00 | 59 | 1019.6 |
| 20260509214529 | 18 | 121 | 1.6 | 6.4 | 0.00 | 0.00 | 0.00 | 62 | 1019.6 |
| 20260509213028 | 19 | 338 | 3.2 | 14.5 | 0.00 | 0.00 | 0.00 | 57 | 1019.8 |
| 20260509211527 | 19 | 24 | 1.6 | 8.0 | 0.00 | 0.00 | 0.00 | 61 | 1020.0 |
| 20260509210036 | 18 | 342 | 1.6 | 8.0 | 0.00 | 0.00 | 0.00 | 62 | 1020.1 |
| 20260509204525 | 18 | 319 | 3.2 | 9.7 | 0.00 | 0.00 | 0.00 | 60 | 1019.9 |
| 20260509203025 | 18 | 24 | 4.8 | 8.0 | 0.00 | 0.00 | 0.00 | 59 | 1020.0 |
| 20260509201526 | 19 | 48 | 1.6 | 8.0 | 0.00 | 0.00 | 0.00 | 61 | 1020.1 |
| 20260509200023 | 18 | 196 | 3.2 | 12.9 | 0.00 | 0.00 | 0.00 | 59 | 1020.1 |
| 20260509194522 | 18 | 235 | 3.2 | 9.7 | 0.00 | 0.00 | 0.00 | 61 | 1020.4 |
| 20260509193018 | 19 | 12 | 1.6 | 4.8 | 0.00 | 0.00 | 0.00 | 61 | 1020.7 |
| 20260509191519 | 18 | 194 | 1.6 | 8.0 | 0.00 | 0.00 | 0.00 | 55 | 1020.8 |
| 20260509190017 | 18 | 40 | 4.8 | 9.7 | 0.00 | 0.00 | 0.00 | 51 | 1021.0 |
| 20260509184517 | 18 | 49 | 3.2 | 14.5 | 0.00 | 0.00 | 0.00 | 54 | 1021.0 |
| 20260509183012 | 18 | 67 | 0.0 | 8.0 | 0.00 | 0.00 | 0.00 | 57 | 1021.0 |
| 20260509181510 | 18 | 344 | 4.8 | 12.9 | 0.00 | 0.00 | 0.00 | 56 | 1021.4 |
| 20260509180006 | 17 | 43 | 3.2 | 8.0 | 0.00 | 0.00 | 0.00 | 60 | 1021.2 |
| 20260509174505 | 17 | 79 | 3.2 | 19.3 | 0.00 | 0.00 | 0.00 | 60 | 1021.2 |
| 20260509173120 | 16 | 15 | 8.0 | 16.1 | 0.00 | 0.00 | 0.00 | 61 | 1021.3 |
| 20260509171559 | 16 | 355 | 6.4 | 14.5 | 0.00 | 0.00 | 0.00 | 65 | 1021.4 |
| 20260509170107 | 16 | 360 | 3.2 | 9.7 | 0.00 | 0.00 | 0.00 | 65 | 1021.5 |
| 20260509164652 | 15 | 11 | 6.4 | 12.9 | 0.00 | 0.00 | 0.00 | 68 | 1021.5 |
| 20260509163050 | 15 | 13 | 3.2 | 14.5 | 0.00 | 0.00 | 0.00 | 68 | 1021.9 |
| 20260509161544 | 15 | 22 | 6.4 | 14.5 | 0.00 | 0.00 | 0.00 | 71 | 1022.1 |
| 20260509160043 | 14 | 350 | 4.8 | 14.5 | 0.00 | 0.00 | 0.00 | 73 | 1022.2 |
| 20260509154535 | 13 | 350 | 3.2 | 8.0 | 0.00 | 0.00 | 0.00 | 74 | 1022.3 |
| 20260509153034 | 13 | 323 | 1.6 | 8.0 | 0.00 | 0.00 | 0.00 | 76 | 1022.2 |
| 20260509151527 | 12 | 338 | 4.8 | 12.9 | 0.00 | 0.00 | 0.00 | 75 | 1022.4 |
| 20260509150024 | 12 | 345 | 1.6 | 6.4 | 0.00 | 0.00 | 0.00 | 79 | 1022.5 |